sensor_id;sensor_type;location;lat;lon;timestamp;temperature;humidity
14079;DHT22;7115;50.150;8.568;2023-05-15T00:01:41;14.40;99.90
14079;DHT22;7115;50.150;8.568;2023-05-15T00:04:07;14.40;99.90
14079;DHT22;7115;50.150;8.568;2023-05-15T00:06:34;14.40;99.90
14079;DHT22;7115;50.150;8.568;2023-05-15T00:09:03;14.30;99.90
14079;DHT22;7115;50.150;8.568;2023-05-15T00:11:30;14.30;99.90
14079;DHT22;7115;50.150;8.568;2023-05-15T00:13:57;14.20;99.90
14079;DHT22;7115;50.150;8.568;2023-05-15T00:16:23;14.20;99.90
14079;DHT22;7115;50.150;8.568;2023-05-15T00:18:50;14.20;99.90
14079;DHT22;7115;50.150;8.568;2023-05-15T00:21:17;14.20;99.90
14079;DHT22;7115;50.150;8.568;2023-05-15T00:23:44;14.20;99.90
14079;DHT22;7115;50.150;8.568;2023-05-15T00:26:14;14.20;99.90
14079;DHT22;7115;50.150;8.568;2023-05-15T00:28:41;14.20;99.90
14079;DHT22;7115;50.150;8.568;2023-05-15T00:31:08;14.20;99.90
14079;DHT22;7115;50.150;8.568;2023-05-15T00:33:35;14.20;99.90
14079;DHT22;7115;50.150;8.568;2023-05-15T00:36:02;14.20;99.90
14079;DHT22;7115;50.150;8.568;2023-05-15T00:38:29;14.20;99.90
14079;DHT22;7115;50.150;8.568;2023-05-15T00:40:56;14.30;99.90
14079;DHT22;7115;50.150;8.568;2023-05-15T00:43:25;14.20;99.90
14079;DHT22;7115;50.150;8.568;2023-05-15T00:45:52;14.20;99.90
14079;DHT22;7115;50.150;8.568;2023-05-15T00:48:19;14.20;99.90
14079;DHT22;7115;50.150;8.568;2023-05-15T00:50:49;14.10;99.90
14079;DHT22;7115;50.150;8.568;2023-05-15T00:53:17;14.10;99.90
14079;DHT22;7115;50.150;8.568;2023-05-15T00:55:45;14.10;99.90
14079;DHT22;7115;50.150;8.568;2023-05-15T00:58:13;14.00;99.90
14079;DHT22;7115;50.150;8.568;2023-05-15T01:00:43;14.00;99.90
14079;DHT22;7115;50.150;8.568;2023-05-15T01:03:11;14.00;99.90
14079;DHT22;7115;50.150;8.568;2023-05-15T01:05:38;14.00;99.90
14079;DHT22;7115;50.150;8.568;2023-05-15T01:08:08;14.00;99.90
14079;DHT22;7115;50.150;8.568;2023-05-15T01:10:36;14.00;99.90
14079;DHT22;7115;50.150;8.568;2023-05-15T01:13:06;13.90;99.90
14079;DHT22;7115;50.150;8.568;2023-05-15T01:15:33;13.90;99.90
14079;DHT22;7115;50.150;8.568;2023-05-15T01:18:01;13.90;99.90
14079;DHT22;7115;50.150;8.568;2023-05-15T01:20:32;13.90;99.90
14079;DHT22;7115;50.150;8.568;2023-05-15T01:23:08;13.90;99.90
14079;DHT22;7115;50.150;8.568;2023-05-15T01:25:49;13.80;99.90
14079;DHT22;7115;50.150;8.568;2023-05-15T01:28:25;13.80;99.90
14079;DHT22;7115;50.150;8.568;2023-05-15T01:30:54;13.80;99.90
14079;DHT22;7115;50.150;8.568;2023-05-15T01:33:24;13.80;99.90
14079;DHT22;7115;50.150;8.568;2023-05-15T01:35:58;13.80;99.90
14079;DHT22;7115;50.150;8.568;2023-05-15T01:38:33;13.70;99.90
14079;DHT22;7115;50.150;8.568;2023-05-15T01:41:07;13.80;99.90
14079;DHT22;7115;50.150;8.568;2023-05-15T01:43:38;13.80;99.90
14079;DHT22;7115;50.150;8.568;2023-05-15T01:46:08;13.70;99.90
14079;DHT22;7115;50.150;8.568;2023-05-15T01:48:39;13.70;99.90
14079;DHT22;7115;50.150;8.568;2023-05-15T01:51:06;13.60;99.90
14079;DHT22;7115;50.150;8.568;2023-05-15T01:53:37;13.60;99.90
14079;DHT22;7115;50.150;8.568;2023-05-15T01:56:06;13.60;99.90
14079;DHT22;7115;50.150;8.568;2023-05-15T01:58:37;13.50;99.90
14079;DHT22;7115;50.150;8.568;2023-05-15T02:01:05;13.50;99.90
14079;DHT22;7115;50.150;8.568;2023-05-15T02:03:33;13.40;99.90
14079;DHT22;7115;50.150;8.568;2023-05-15T02:06:01;13.50;99.90
14079;DHT22;7115;50.150;8.568;2023-05-15T02:08:28;13.40;99.90
14079;DHT22;7115;50.150;8.568;2023-05-15T02:10:57;13.40;99.90
14079;DHT22;7115;50.150;8.568;2023-05-15T02:13:25;13.40;99.90
14079;DHT22;7115;50.150;8.568;2023-05-15T02:15:54;13.40;99.90
14079;DHT22;7115;50.150;8.568;2023-05-15T02:18:21;13.30;99.90
14079;DHT22;7115;50.150;8.568;2023-05-15T02:20:48;13.30;99.90
14079;DHT22;7115;50.150;8.568;2023-05-15T02:23:15;13.20;99.90
14079;DHT22;7115;50.150;8.568;2023-05-15T02:25:47;13.20;99.90
14079;DHT22;7115;50.150;8.568;2023-05-15T02:28:22;13.20;99.90
14079;DHT22;7115;50.150;8.568;2023-05-15T02:30:57;13.10;99.90
14079;DHT22;7115;50.150;8.568;2023-05-15T02:33:30;13.10;99.90
14079;DHT22;7115;50.150;8.568;2023-05-15T02:36:04;13.10;99.90
14079;DHT22;7115;50.150;8.568;2023-05-15T02:38:35;13.10;99.90
14079;DHT22;7115;50.150;8.568;2023-05-15T02:41:05;13.10;99.90
14079;DHT22;7115;50.150;8.568;2023-05-15T02:43:33;13.10;99.90
14079;DHT22;7115;50.150;8.568;2023-05-15T02:46:03;13.00;99.90
14079;DHT22;7115;50.150;8.568;2023-05-15T02:48:31;13.00;99.90
14079;DHT22;7115;50.150;8.568;2023-05-15T02:50:58;13.00;99.90
14079;DHT22;7115;50.150;8.568;2023-05-15T02:53:25;13.00;99.90
14079;DHT22;7115;50.150;8.568;2023-05-15T02:55:52;13.00;99.90
14079;DHT22;7115;50.150;8.568;2023-05-15T02:58:18;13.00;99.90
14079;DHT22;7115;50.150;8.568;2023-05-15T03:00:45;13.00;99.90
14079;DHT22;7115;50.150;8.568;2023-05-15T03:03:14;13.00;99.90
14079;DHT22;7115;50.150;8.568;2023-05-15T03:05:41;13.00;99.90
14079;DHT22;7115;50.150;8.568;2023-05-15T03:08:07;13.00;99.90
14079;DHT22;7115;50.150;8.568;2023-05-15T03:10:34;12.90;99.90
14079;DHT22;7115;50.150;8.568;2023-05-15T03:13:02;12.90;99.90
14079;DHT22;7115;50.150;8.568;2023-05-15T03:15:28;12.90;99.90
14079;DHT22;7115;50.150;8.568;2023-05-15T03:17:55;12.90;99.90
14079;DHT22;7115;50.150;8.568;2023-05-15T03:20:24;12.80;99.90
14079;DHT22;7115;50.150;8.568;2023-05-15T03:22:51;12.80;99.90
14079;DHT22;7115;50.150;8.568;2023-05-15T03:25:18;12.80;99.90
14079;DHT22;7115;50.150;8.568;2023-05-15T03:27:44;12.80;99.90
14079;DHT22;7115;50.150;8.568;2023-05-15T03:30:11;12.80;99.90
14079;DHT22;7115;50.150;8.568;2023-05-15T03:32:38;12.80;99.90
14079;DHT22;7115;50.150;8.568;2023-05-15T03:35:06;12.70;99.90
14079;DHT22;7115;50.150;8.568;2023-05-15T03:37:34;12.70;99.90
14079;DHT22;7115;50.150;8.568;2023-05-15T03:40:01;12.60;99.90
14079;DHT22;7115;50.150;8.568;2023-05-15T03:42:28;12.60;99.90
14079;DHT22;7115;50.150;8.568;2023-05-15T03:44:55;12.60;99.90
14079;DHT22;7115;50.150;8.568;2023-05-15T03:47:22;12.50;99.90
14079;DHT22;7115;50.150;8.568;2023-05-15T03:49:49;12.50;99.90
14079;DHT22;7115;50.150;8.568;2023-05-15T03:52:16;12.50;99.90
14079;DHT22;7115;50.150;8.568;2023-05-15T03:54:44;12.50;99.90
14079;DHT22;7115;50.150;8.568;2023-05-15T03:57:11;12.50;99.90
14079;DHT22;7115;50.150;8.568;2023-05-15T03:59:38;12.50;99.90
14079;DHT22;7115;50.150;8.568;2023-05-15T04:02:05;12.50;99.90
14079;DHT22;7115;50.150;8.568;2023-05-15T04:04:32;12.50;99.90
14079;DHT22;7115;50.150;8.568;2023-05-15T04:06:59;12.50;99.90
14079;DHT22;7115;50.150;8.568;2023-05-15T04:09:26;12.60;99.90
14079;DHT22;7115;50.150;8.568;2023-05-15T04:11:54;12.50;99.90
14079;DHT22;7115;50.150;8.568;2023-05-15T04:14:21;12.60;99.90
14079;DHT22;7115;50.150;8.568;2023-05-15T04:16:48;12.60;99.90
14079;DHT22;7115;50.150;8.568;2023-05-15T04:19:15;12.50;99.90
14079;DHT22;7115;50.150;8.568;2023-05-15T04:21:42;12.50;99.90
14079;DHT22;7115;50.150;8.568;2023-05-15T04:24:09;12.60;99.90
14079;DHT22;7115;50.150;8.568;2023-05-15T04:26:36;12.50;99.90
14079;DHT22;7115;50.150;8.568;2023-05-15T04:29:04;12.50;99.90
14079;DHT22;7115;50.150;8.568;2023-05-15T04:31:33;12.50;99.90
14079;DHT22;7115;50.150;8.568;2023-05-15T04:34:00;12.50;99.90
14079;DHT22;7115;50.150;8.568;2023-05-15T04:36:27;12.50;99.90
14079;DHT22;7115;50.150;8.568;2023-05-15T04:38:54;12.60;99.90
14079;DHT22;7115;50.150;8.568;2023-05-15T04:41:22;12.60;99.90
14079;DHT22;7115;50.150;8.568;2023-05-15T04:43:48;12.60;99.90
14079;DHT22;7115;50.150;8.568;2023-05-15T04:46:17;12.60;99.90
14079;DHT22;7115;50.150;8.568;2023-05-15T04:48:44;12.70;99.90
14079;DHT22;7115;50.150;8.568;2023-05-15T04:51:11;12.70;99.90
14079;DHT22;7115;50.150;8.568;2023-05-15T04:53:38;12.70;99.90
14079;DHT22;7115;50.150;8.568;2023-05-15T04:56:05;12.70;99.90
14079;DHT22;7115;50.150;8.568;2023-05-15T04:58:33;12.70;99.90
14079;DHT22;7115;50.150;8.568;2023-05-15T05:01:00;12.80;99.90
14079;DHT22;7115;50.150;8.568;2023-05-15T05:03:31;12.80;99.90
14079;DHT22;7115;50.150;8.568;2023-05-15T05:05:58;12.90;99.90
14079;DHT22;7115;50.150;8.568;2023-05-15T05:08:25;13.00;99.90
14079;DHT22;7115;50.150;8.568;2023-05-15T05:10:54;13.10;99.90
14079;DHT22;7115;50.150;8.568;2023-05-15T05:13:21;13.20;99.90
14079;DHT22;7115;50.150;8.568;2023-05-15T05:15:48;13.30;99.90
14079;DHT22;7115;50.150;8.568;2023-05-15T05:18:15;13.40;99.90
14079;DHT22;7115;50.150;8.568;2023-05-15T05:20:43;13.50;99.90
14079;DHT22;7115;50.150;8.568;2023-05-15T05:23:10;13.60;99.90
14079;DHT22;7115;50.150;8.568;2023-05-15T05:25:37;13.60;99.90
14079;DHT22;7115;50.150;8.568;2023-05-15T05:28:04;13.80;99.90
14079;DHT22;7115;50.150;8.568;2023-05-15T05:30:31;13.80;99.90
14079;DHT22;7115;50.150;8.568;2023-05-15T05:32:57;13.90;99.90
14079;DHT22;7115;50.150;8.568;2023-05-15T05:35:24;14.00;99.90
14079;DHT22;7115;50.150;8.568;2023-05-15T05:37:54;14.10;99.90
14079;DHT22;7115;50.150;8.568;2023-05-15T05:40:21;14.20;99.90
14079;DHT22;7115;50.150;8.568;2023-05-15T05:42:48;14.20;99.90
14079;DHT22;7115;50.150;8.568;2023-05-15T05:45:15;14.30;99.90
14079;DHT22;7115;50.150;8.568;2023-05-15T05:47:42;14.30;99.90
14079;DHT22;7115;50.150;8.568;2023-05-15T05:50:09;14.40;99.90
14079;DHT22;7115;50.150;8.568;2023-05-15T05:52:36;14.50;99.90
14079;DHT22;7115;50.150;8.568;2023-05-15T05:55:05;14.60;99.90
14079;DHT22;7115;50.150;8.568;2023-05-15T05:57:32;14.70;99.90
14079;DHT22;7115;50.150;8.568;2023-05-15T05:59:59;14.80;99.90
14079;DHT22;7115;50.150;8.568;2023-05-15T06:02:26;14.90;99.90
14079;DHT22;7115;50.150;8.568;2023-05-15T06:04:53;15.00;99.90
14079;DHT22;7115;50.150;8.568;2023-05-15T06:07:20;15.10;99.90
14079;DHT22;7115;50.150;8.568;2023-05-15T06:09:47;15.20;99.90
14079;DHT22;7115;50.150;8.568;2023-05-15T06:12:16;15.30;99.90
14079;DHT22;7115;50.150;8.568;2023-05-15T06:14:42;15.40;99.90
14079;DHT22;7115;50.150;8.568;2023-05-15T06:17:10;15.50;99.90
14079;DHT22;7115;50.150;8.568;2023-05-15T06:19:37;15.60;99.90
14079;DHT22;7115;50.150;8.568;2023-05-15T06:22:04;15.60;99.90
14079;DHT22;7115;50.150;8.568;2023-05-15T06:24:31;15.70;99.90
14079;DHT22;7115;50.150;8.568;2023-05-15T06:26:58;15.80;99.90
14079;DHT22;7115;50.150;8.568;2023-05-15T06:29:26;15.80;99.90
14079;DHT22;7115;50.150;8.568;2023-05-15T06:31:53;15.90;99.90
14079;DHT22;7115;50.150;8.568;2023-05-15T06:34:20;15.90;99.90
14079;DHT22;7115;50.150;8.568;2023-05-15T06:36:47;16.00;99.90
14079;DHT22;7115;50.150;8.568;2023-05-15T06:39:14;16.10;99.90
14079;DHT22;7115;50.150;8.568;2023-05-15T06:41:41;16.20;99.90
14079;DHT22;7115;50.150;8.568;2023-05-15T06:44:07;16.20;99.90
14079;DHT22;7115;50.150;8.568;2023-05-15T06:46:36;16.30;99.90
14079;DHT22;7115;50.150;8.568;2023-05-15T06:49:03;16.50;99.90
14079;DHT22;7115;50.150;8.568;2023-05-15T06:51:30;16.50;99.90
14079;DHT22;7115;50.150;8.568;2023-05-15T06:53:57;16.50;99.90
14079;DHT22;7115;50.150;8.568;2023-05-15T06:56:24;16.60;99.90
14079;DHT22;7115;50.150;8.568;2023-05-15T06:58:51;16.70;99.90
14079;DHT22;7115;50.150;8.568;2023-05-15T07:01:18;16.80;99.90
14079;DHT22;7115;50.150;8.568;2023-05-15T07:03:46;16.90;99.90
14079;DHT22;7115;50.150;8.568;2023-05-15T07:06:13;17.00;99.90
14079;DHT22;7115;50.150;8.568;2023-05-15T07:08:40;17.10;99.90
14079;DHT22;7115;50.150;8.568;2023-05-15T07:11:07;17.20;99.90
14079;DHT22;7115;50.150;8.568;2023-05-15T07:13:34;17.30;99.90
14079;DHT22;7115;50.150;8.568;2023-05-15T07:16:01;17.40;99.90
14079;DHT22;7115;50.150;8.568;2023-05-15T07:18:29;17.50;99.90
14079;DHT22;7115;50.150;8.568;2023-05-15T07:20:57;17.50;99.90
14079;DHT22;7115;50.150;8.568;2023-05-15T07:23:24;17.80;99.90
14079;DHT22;7115;50.150;8.568;2023-05-15T07:25:52;17.90;99.90
14079;DHT22;7115;50.150;8.568;2023-05-15T07:28:19;18.00;99.90
14079;DHT22;7115;50.150;8.568;2023-05-15T07:30:47;18.10;99.90
14079;DHT22;7115;50.150;8.568;2023-05-15T07:33:14;18.20;99.90
14079;DHT22;7115;50.150;8.568;2023-05-15T07:35:41;18.30;99.90
14079;DHT22;7115;50.150;8.568;2023-05-15T07:38:10;18.40;99.90
14079;DHT22;7115;50.150;8.568;2023-05-15T07:40:37;18.50;99.90
14079;DHT22;7115;50.150;8.568;2023-05-15T07:43:04;18.50;99.90
14079;DHT22;7115;50.150;8.568;2023-05-15T07:45:31;18.60;99.90
14079;DHT22;7115;50.150;8.568;2023-05-15T07:47:58;18.70;99.90
14079;DHT22;7115;50.150;8.568;2023-05-15T07:50:38;18.80;99.90
14079;DHT22;7115;50.150;8.568;2023-05-15T07:53:05;19.00;99.90
14079;DHT22;7115;50.150;8.568;2023-05-15T07:55:33;19.10;99.90
14079;DHT22;7115;50.150;8.568;2023-05-15T07:58:00;19.20;99.90
14079;DHT22;7115;50.150;8.568;2023-05-15T08:00:27;19.30;99.90
14079;DHT22;7115;50.150;8.568;2023-05-15T08:02:54;19.40;99.90
14079;DHT22;7115;50.150;8.568;2023-05-15T08:05:21;19.60;99.90
14079;DHT22;7115;50.150;8.568;2023-05-15T08:07:48;19.70;99.90
14079;DHT22;7115;50.150;8.568;2023-05-15T08:10:15;19.80;99.80
14079;DHT22;7115;50.150;8.568;2023-05-15T08:12:43;19.90;99.60
14079;DHT22;7115;50.150;8.568;2023-05-15T08:15:13;20.00;99.70
14079;DHT22;7115;50.150;8.568;2023-05-15T08:17:40;20.00;99.20
14079;DHT22;7115;50.150;8.568;2023-05-15T08:20:08;20.10;99.20
14079;DHT22;7115;50.150;8.568;2023-05-15T08:22:35;20.20;98.90
14079;DHT22;7115;50.150;8.568;2023-05-15T08:25:02;20.40;98.80
14079;DHT22;7115;50.150;8.568;2023-05-15T08:27:29;20.50;98.70
14079;DHT22;7115;50.150;8.568;2023-05-15T08:29:57;20.60;98.50
14079;DHT22;7115;50.150;8.568;2023-05-15T08:32:24;20.70;98.30
14079;DHT22;7115;50.150;8.568;2023-05-15T08:34:52;20.80;98.10
14079;DHT22;7115;50.150;8.568;2023-05-15T08:37:20;20.70;97.90
14079;DHT22;7115;50.150;8.568;2023-05-15T08:39:47;21.00;97.90
14079;DHT22;7115;50.150;8.568;2023-05-15T08:42:18;21.10;97.70
14079;DHT22;7115;50.150;8.568;2023-05-15T08:44:46;21.20;97.50
14079;DHT22;7115;50.150;8.568;2023-05-15T08:47:15;21.20;97.30
14079;DHT22;7115;50.150;8.568;2023-05-15T08:49:48;21.00;97.10
14079;DHT22;7115;50.150;8.568;2023-05-15T08:52:17;21.00;97.10
14079;DHT22;7115;50.150;8.568;2023-05-15T08:54:44;21.00;97.00
14079;DHT22;7115;50.150;8.568;2023-05-15T08:57:14;20.90;96.90
14079;DHT22;7115;50.150;8.568;2023-05-15T08:59:42;21.00;96.80
14079;DHT22;7115;50.150;8.568;2023-05-15T09:02:09;21.00;96.70
14079;DHT22;7115;50.150;8.568;2023-05-15T09:04:38;21.00;96.60
14079;DHT22;7115;50.150;8.568;2023-05-15T09:07:06;21.10;96.50
14079;DHT22;7115;50.150;8.568;2023-05-15T09:09:35;21.10;96.30
14079;DHT22;7115;50.150;8.568;2023-05-15T09:12:03;21.10;96.00
14079;DHT22;7115;50.150;8.568;2023-05-15T09:14:33;21.30;95.80
14079;DHT22;7115;50.150;8.568;2023-05-15T09:17:00;21.40;95.50
14079;DHT22;7115;50.150;8.568;2023-05-15T09:19:27;21.50;95.20
14079;DHT22;7115;50.150;8.568;2023-05-15T09:22:13;21.60;94.80
14079;DHT22;7115;50.150;8.568;2023-05-15T09:24:44;21.70;94.60
14079;DHT22;7115;50.150;8.568;2023-05-15T09:27:14;21.80;94.70
14079;DHT22;7115;50.150;8.568;2023-05-15T09:29:40;21.90;94.70
14079;DHT22;7115;50.150;8.568;2023-05-15T09:32:09;22.00;94.60
14079;DHT22;7115;50.150;8.568;2023-05-15T09:34:39;22.10;94.40
14079;DHT22;7115;50.150;8.568;2023-05-15T09:37:09;21.90;94.10
14079;DHT22;7115;50.150;8.568;2023-05-15T09:39:40;21.60;94.20
14079;DHT22;7115;50.150;8.568;2023-05-15T09:42:09;21.30;94.40
14079;DHT22;7115;50.150;8.568;2023-05-15T09:44:40;21.20;94.50
14079;DHT22;7115;50.150;8.568;2023-05-15T09:47:08;21.20;94.60
14079;DHT22;7115;50.150;8.568;2023-05-15T09:49:35;21.10;94.50
14079;DHT22;7115;50.150;8.568;2023-05-15T09:52:02;21.00;94.60
14079;DHT22;7115;50.150;8.568;2023-05-15T09:54:34;20.90;94.80
14079;DHT22;7115;50.150;8.568;2023-05-15T09:57:12;20.90;94.90
14079;DHT22;7115;50.150;8.568;2023-05-15T09:59:43;20.80;94.80
14079;DHT22;7115;50.150;8.568;2023-05-15T10:02:13;20.70;94.80
14079;DHT22;7115;50.150;8.568;2023-05-15T10:04:40;20.60;94.80
14079;DHT22;7115;50.150;8.568;2023-05-15T10:07:07;20.60;94.80
14079;DHT22;7115;50.150;8.568;2023-05-15T10:09:37;20.60;95.00
14079;DHT22;7115;50.150;8.568;2023-05-15T10:12:05;20.60;95.20
14079;DHT22;7115;50.150;8.568;2023-05-15T10:14:33;20.90;95.20
14079;DHT22;7115;50.150;8.568;2023-05-15T10:17:01;21.10;95.00
14079;DHT22;7115;50.150;8.568;2023-05-15T10:19:29;21.20;94.90
14079;DHT22;7115;50.150;8.568;2023-05-15T10:21:57;21.30;94.90
14079;DHT22;7115;50.150;8.568;2023-05-15T10:24:27;21.40;94.70
14079;DHT22;7115;50.150;8.568;2023-05-15T10:26:58;21.40;94.80
14079;DHT22;7115;50.150;8.568;2023-05-15T10:29:26;21.50;94.90
14079;DHT22;7115;50.150;8.568;2023-05-15T10:31:54;21.60;94.80
14079;DHT22;7115;50.150;8.568;2023-05-15T10:34:22;21.60;94.60
14079;DHT22;7115;50.150;8.568;2023-05-15T10:36:50;21.50;94.50
14079;DHT22;7115;50.150;8.568;2023-05-15T10:39:18;21.50;94.50
14079;DHT22;7115;50.150;8.568;2023-05-15T10:41:45;21.40;94.60
14079;DHT22;7115;50.150;8.568;2023-05-15T10:44:14;21.30;94.70
14079;DHT22;7115;50.150;8.568;2023-05-15T10:46:43;21.30;94.90
14079;DHT22;7115;50.150;8.568;2023-05-15T10:49:10;21.20;94.90
14079;DHT22;7115;50.150;8.568;2023-05-15T10:51:37;21.20;94.70
14079;DHT22;7115;50.150;8.568;2023-05-15T10:54:08;21.10;94.80
14079;DHT22;7115;50.150;8.568;2023-05-15T10:56:37;21.00;94.90
14079;DHT22;7115;50.150;8.568;2023-05-15T10:59:06;21.10;94.60
14079;DHT22;7115;50.150;8.568;2023-05-15T11:01:38;21.10;94.70
14079;DHT22;7115;50.150;8.568;2023-05-15T11:04:10;21.10;94.60
14079;DHT22;7115;50.150;8.568;2023-05-15T11:06:38;21.00;94.50
14079;DHT22;7115;50.150;8.568;2023-05-15T11:09:34;21.00;94.50
14079;DHT22;7115;50.150;8.568;2023-05-15T11:12:02;21.00;94.30
14079;DHT22;7115;50.150;8.568;2023-05-15T11:14:30;21.00;94.50
14079;DHT22;7115;50.150;8.568;2023-05-15T11:17:00;21.00;94.70
14079;DHT22;7115;50.150;8.568;2023-05-15T11:19:34;21.00;94.70
14079;DHT22;7115;50.150;8.568;2023-05-15T11:22:14;21.00;94.60
14079;DHT22;7115;50.150;8.568;2023-05-15T11:24:50;21.00;94.70
14079;DHT22;7115;50.150;8.568;2023-05-15T11:27:19;21.30;94.70
14079;DHT22;7115;50.150;8.568;2023-05-15T11:30:05;21.60;94.50
14079;DHT22;7115;50.150;8.568;2023-05-15T11:32:47;22.00;94.20
14079;DHT22;7115;50.150;8.568;2023-05-15T11:35:19;22.50;94.00
14079;DHT22;7115;50.150;8.568;2023-05-15T11:37:49;22.80;93.70
14079;DHT22;7115;50.150;8.568;2023-05-15T11:40:21;23.10;93.50
14079;DHT22;7115;50.150;8.568;2023-05-15T11:43:02;23.20;92.90
14079;DHT22;7115;50.150;8.568;2023-05-15T11:45:30;23.30;92.20
14079;DHT22;7115;50.150;8.568;2023-05-15T11:48:01;23.30;92.00
14079;DHT22;7115;50.150;8.568;2023-05-15T11:50:30;23.20;92.00
14079;DHT22;7115;50.150;8.568;2023-05-15T11:53:04;23.20;92.00
14079;DHT22;7115;50.150;8.568;2023-05-15T11:55:33;23.10;91.90
14079;DHT22;7115;50.150;8.568;2023-05-15T11:58:00;22.90;91.80
14079;DHT22;7115;50.150;8.568;2023-05-15T12:00:27;22.70;91.90
14079;DHT22;7115;50.150;8.568;2023-05-15T12:02:54;22.60;91.90
14079;DHT22;7115;50.150;8.568;2023-05-15T12:05:23;22.50;91.80
14079;DHT22;7115;50.150;8.568;2023-05-15T12:07:50;22.30;91.60
14079;DHT22;7115;50.150;8.568;2023-05-15T12:10:18;22.30;91.60
14079;DHT22;7115;50.150;8.568;2023-05-15T12:12:45;22.20;91.60
14079;DHT22;7115;50.150;8.568;2023-05-15T12:15:13;22.10;91.80
14079;DHT22;7115;50.150;8.568;2023-05-15T12:17:41;22.10;91.80
14079;DHT22;7115;50.150;8.568;2023-05-15T12:20:13;22.10;91.80
14079;DHT22;7115;50.150;8.568;2023-05-15T12:22:41;22.20;91.80
14079;DHT22;7115;50.150;8.568;2023-05-15T12:25:09;22.20;91.70
14079;DHT22;7115;50.150;8.568;2023-05-15T12:27:38;22.30;91.70
14079;DHT22;7115;50.150;8.568;2023-05-15T12:30:06;22.30;91.50
14079;DHT22;7115;50.150;8.568;2023-05-15T12:32:34;22.40;91.30
14079;DHT22;7115;50.150;8.568;2023-05-15T12:35:03;22.40;91.20
14079;DHT22;7115;50.150;8.568;2023-05-15T12:37:31;22.50;91.30
14079;DHT22;7115;50.150;8.568;2023-05-15T12:40:02;22.50;91.20
14079;DHT22;7115;50.150;8.568;2023-05-15T12:42:37;22.50;91.20
14079;DHT22;7115;50.150;8.568;2023-05-15T12:45:11;22.60;91.30
14079;DHT22;7115;50.150;8.568;2023-05-15T12:47:39;22.80;91.40
14079;DHT22;7115;50.150;8.568;2023-05-15T12:50:12;22.80;91.40
14079;DHT22;7115;50.150;8.568;2023-05-15T12:52:40;22.90;91.50
14079;DHT22;7115;50.150;8.568;2023-05-15T12:55:14;22.70;91.50
14079;DHT22;7115;50.150;8.568;2023-05-15T12:57:41;22.80;91.70
14079;DHT22;7115;50.150;8.568;2023-05-15T13:00:10;22.80;91.70
14079;DHT22;7115;50.150;8.568;2023-05-15T13:02:38;22.80;91.80
14079;DHT22;7115;50.150;8.568;2023-05-15T13:05:08;22.80;91.70
14079;DHT22;7115;50.150;8.568;2023-05-15T13:07:35;22.80;91.60
14079;DHT22;7115;50.150;8.568;2023-05-15T13:10:04;22.80;91.60
14079;DHT22;7115;50.150;8.568;2023-05-15T13:12:37;22.70;91.40
14079;DHT22;7115;50.150;8.568;2023-05-15T13:15:06;22.40;90.70
14079;DHT22;7115;50.150;8.568;2023-05-15T13:17:33;21.90;90.70
14079;DHT22;7115;50.150;8.568;2023-05-15T13:20:01;21.40;91.10
14079;DHT22;7115;50.150;8.568;2023-05-15T13:22:28;20.70;92.00
14079;DHT22;7115;50.150;8.568;2023-05-15T13:24:56;19.90;92.80
14079;DHT22;7115;50.150;8.568;2023-05-15T13:27:22;19.10;93.70
14079;DHT22;7115;50.150;8.568;2023-05-15T13:29:51;18.40;94.40
14079;DHT22;7115;50.150;8.568;2023-05-15T13:32:18;17.90;95.00
14079;DHT22;7115;50.150;8.568;2023-05-15T13:34:44;17.40;95.60
14079;DHT22;7115;50.150;8.568;2023-05-15T13:37:11;17.10;96.20
14079;DHT22;7115;50.150;8.568;2023-05-15T13:39:38;16.80;96.60
14079;DHT22;7115;50.150;8.568;2023-05-15T13:42:05;16.70;97.10
14079;DHT22;7115;50.150;8.568;2023-05-15T13:44:32;16.50;97.50
14079;DHT22;7115;50.150;8.568;2023-05-15T13:47:03;16.40;97.80
14079;DHT22;7115;50.150;8.568;2023-05-15T13:49:30;16.50;98.10
14079;DHT22;7115;50.150;8.568;2023-05-15T13:51:57;16.50;98.30
14079;DHT22;7115;50.150;8.568;2023-05-15T13:54:24;16.60;98.70
14079;DHT22;7115;50.150;8.568;2023-05-15T13:56:51;16.70;99.10
14079;DHT22;7115;50.150;8.568;2023-05-15T13:59:18;16.80;99.50
14079;DHT22;7115;50.150;8.568;2023-05-15T14:01:46;16.90;99.70
14079;DHT22;7115;50.150;8.568;2023-05-15T14:04:14;17.00;99.80
14079;DHT22;7115;50.150;8.568;2023-05-15T14:06:41;17.10;99.90
14079;DHT22;7115;50.150;8.568;2023-05-15T14:09:08;17.20;99.90
14079;DHT22;7115;50.150;8.568;2023-05-15T14:11:35;17.10;99.90
14079;DHT22;7115;50.150;8.568;2023-05-15T14:14:02;17.10;99.90
14079;DHT22;7115;50.150;8.568;2023-05-15T14:16:29;17.00;99.90
14079;DHT22;7115;50.150;8.568;2023-05-15T14:18:56;16.90;99.90
14079;DHT22;7115;50.150;8.568;2023-05-15T14:21:25;16.90;99.90
14079;DHT22;7115;50.150;8.568;2023-05-15T14:23:51;16.90;99.90
14079;DHT22;7115;50.150;8.568;2023-05-15T14:26:18;16.90;99.90
14079;DHT22;7115;50.150;8.568;2023-05-15T14:28:46;16.90;99.90
14079;DHT22;7115;50.150;8.568;2023-05-15T14:31:12;17.00;99.90
14079;DHT22;7115;50.150;8.568;2023-05-15T14:33:39;17.00;99.90
14079;DHT22;7115;50.150;8.568;2023-05-15T14:36:07;17.00;99.90
14079;DHT22;7115;50.150;8.568;2023-05-15T14:38:36;17.00;99.90
14079;DHT22;7115;50.150;8.568;2023-05-15T14:41:04;17.00;99.90
14079;DHT22;7115;50.150;8.568;2023-05-15T14:43:30;16.90;99.90
14079;DHT22;7115;50.150;8.568;2023-05-15T14:45:57;16.80;99.90
14079;DHT22;7115;50.150;8.568;2023-05-15T14:48:24;16.80;99.90
14079;DHT22;7115;50.150;8.568;2023-05-15T14:50:51;16.70;99.90
14079;DHT22;7115;50.150;8.568;2023-05-15T14:53:18;16.70;99.90
14079;DHT22;7115;50.150;8.568;2023-05-15T14:55:46;16.70;99.90
14079;DHT22;7115;50.150;8.568;2023-05-15T14:58:13;16.50;99.90
14079;DHT22;7115;50.150;8.568;2023-05-15T15:00:40;16.60;99.90
14079;DHT22;7115;50.150;8.568;2023-05-15T15:03:07;16.50;99.90
14079;DHT22;7115;50.150;8.568;2023-05-15T15:05:34;16.50;99.90
14079;DHT22;7115;50.150;8.568;2023-05-15T15:08:03;16.50;99.90
14079;DHT22;7115;50.150;8.568;2023-05-15T15:10:31;16.60;99.90
14079;DHT22;7115;50.150;8.568;2023-05-15T15:13:00;16.70;99.90
14079;DHT22;7115;50.150;8.568;2023-05-15T15:15:27;16.70;99.90
14079;DHT22;7115;50.150;8.568;2023-05-15T15:17:55;16.80;99.90
14079;DHT22;7115;50.150;8.568;2023-05-15T15:20:24;16.90;99.90
14079;DHT22;7115;50.150;8.568;2023-05-15T15:22:52;16.90;99.90
14079;DHT22;7115;50.150;8.568;2023-05-15T15:25:20;16.90;99.90
14079;DHT22;7115;50.150;8.568;2023-05-15T15:27:47;17.00;99.90
14079;DHT22;7115;50.150;8.568;2023-05-15T15:30:16;17.00;99.90
14079;DHT22;7115;50.150;8.568;2023-05-15T15:32:43;17.00;99.90
14079;DHT22;7115;50.150;8.568;2023-05-15T15:35:11;17.10;99.90
14079;DHT22;7115;50.150;8.568;2023-05-15T15:37:38;17.10;99.90
14079;DHT22;7115;50.150;8.568;2023-05-15T15:40:07;17.10;99.90
14079;DHT22;7115;50.150;8.568;2023-05-15T15:42:34;17.20;99.90
14079;DHT22;7115;50.150;8.568;2023-05-15T15:45:01;17.20;99.90
14079;DHT22;7115;50.150;8.568;2023-05-15T15:47:29;17.20;99.90
14079;DHT22;7115;50.150;8.568;2023-05-15T15:49:57;17.20;99.90
14079;DHT22;7115;50.150;8.568;2023-05-15T15:52:25;17.20;99.90